createdAt,value
2018-12-26T00:00:04.963Z,12.80
2018-12-26T00:02:27.112Z,22.70
2018-12-26T00:04:46.779Z,11.93
2018-12-26T00:07:06.192Z,12.55
2018-12-26T00:09:25.537Z,13.10
2018-12-26T00:11:45.751Z,13.95
2018-12-26T00:14:06.906Z,11.40
2018-12-26T00:16:27.891Z,11.30
2018-12-26T00:18:47.521Z,13.13
2018-12-26T00:21:07.589Z,14.00
2018-12-26T00:23:58.988Z,10.37
2018-12-26T00:26:46.672Z,13.37
2018-12-26T00:29:20.883Z,10.20
2018-12-26T00:31:43.776Z,15.10
2018-12-26T00:34:07.015Z,11.37
2018-12-26T00:36:39.791Z,9.83
2018-12-26T00:39:02.684Z,11.20
2018-12-26T00:41:37.423Z,12.50
2018-12-26T00:44:06.111Z,10.90
2018-12-26T00:46:29.727Z,10.87
2018-12-26T00:48:51.048Z,13.50
2018-12-26T00:51:12.913Z,12.13
2018-12-26T00:53:32.972Z,11.93
2018-12-26T00:55:56.843Z,14.60
2018-12-26T00:58:32.661Z,8.93
2018-12-26T01:00:53.879Z,13.43
2018-12-26T01:03:17.019Z,10.80
2018-12-26T01:05:41.891Z,9.50
2018-12-26T01:08:24.298Z,10.60
2018-12-26T01:11:01.414Z,12.15
2018-12-26T01:13:20.927Z,12.10
2018-12-26T01:15:42.669Z,9.13
2018-12-26T01:18:06.076Z,11.70
2018-12-26T01:20:28.087Z,16.13
2018-12-26T01:22:48.557Z,11.48
2018-12-26T01:25:14.918Z,14.60
2018-12-26T01:27:36.960Z,10.03
2018-12-26T01:30:27.486Z,14.23
2018-12-26T01:33:14.188Z,13.23
2018-12-26T01:35:32.463Z,11.17
2018-12-26T01:37:56.363Z,14.07
2018-12-26T01:40:21.117Z,17.67
2018-12-26T01:42:44.576Z,14.90
2018-12-26T01:45:17.340Z,13.17
2018-12-26T01:47:41.884Z,12.07
2018-12-26T01:52:58.687Z,11.57
2018-12-26T01:55:21.176Z,11.03
2018-12-26T01:57:43.759Z,11.03
2018-12-26T02:00:04.484Z,18.70
2018-12-26T02:02:26.759Z,12.47
2018-12-26T02:04:47.821Z,12.20
2018-12-26T02:07:00.560Z,12.60
2018-12-26T02:09:22.565Z,16.37
2018-12-26T02:11:59.513Z,13.35
2018-12-26T02:14:22.767Z,15.53
2018-12-26T02:16:58.535Z,16.05
2018-12-26T02:19:21.702Z,17.67
2018-12-26T02:21:44.485Z,10.90
2018-12-26T02:24:04.200Z,12.83
2018-12-26T02:26:23.808Z,15.23
2018-12-26T02:28:44.686Z,10.35
2018-12-26T02:31:06.450Z,11.50
2018-12-26T02:33:31.359Z,9.10
2018-12-26T02:36:02.705Z,11.67
2018-12-26T02:38:22.187Z,10.00
2018-12-26T02:40:41.589Z,11.23
2018-12-26T02:43:01.410Z,10.53
2018-12-26T02:45:20.807Z,11.27
2018-12-26T02:47:40.137Z,14.83
2018-12-26T02:50:00.801Z,17.15
2018-12-26T02:52:19.994Z,12.00
2018-12-26T02:54:40.444Z,11.30
2018-12-26T02:56:59.865Z,10.90
2018-12-26T02:59:19.313Z,11.07
2018-12-26T03:01:38.378Z,12.10
2018-12-26T03:03:58.028Z,11.75
2018-12-26T03:06:17.948Z,15.98
2018-12-26T03:08:37.744Z,10.40
2018-12-26T03:10:57.369Z,13.60
2018-12-26T03:13:16.450Z,11.97
2018-12-26T03:15:36.185Z,11.73
2018-12-26T03:17:55.816Z,13.53
2018-12-26T03:20:15.158Z,11.53
2018-12-26T03:22:34.592Z,12.18
2018-12-26T03:24:54.544Z,10.23
2018-12-26T03:27:14.099Z,12.97
2018-12-26T03:29:32.075Z,11.17
2018-12-26T03:31:52.131Z,10.40
2018-12-26T03:34:11.595Z,9.17
2018-12-26T03:36:30.808Z,12.33
2018-12-26T03:38:50.112Z,8.87
2018-12-26T03:41:09.996Z,11.37
2018-12-26T03:43:29.454Z,7.60
2018-12-26T03:45:48.758Z,8.67
2018-12-26T03:48:08.168Z,8.77
2018-12-26T03:50:27.473Z,12.60
2018-12-26T03:52:46.963Z,10.83
2018-12-26T03:55:07.401Z,12.03
2018-12-26T03:57:27.058Z,12.23
2018-12-26T03:59:46.755Z,11.77
2018-12-26T04:02:06.078Z,10.20
2018-12-26T04:04:25.803Z,9.83
2018-12-26T04:06:45.259Z,10.53
2018-12-26T04:09:04.247Z,12.70
2018-12-26T04:11:24.315Z,11.93
2018-12-26T04:13:42.648Z,13.25
2018-12-26T04:16:00.775Z,11.33
2018-12-26T04:18:20.310Z,11.60
2018-12-26T04:20:39.985Z,10.73
2018-12-26T04:22:59.026Z,17.20
2018-12-26T04:25:18.627Z,11.23
2018-12-26T04:27:37.913Z,10.27
2018-12-26T04:29:56.952Z,10.17
2018-12-26T04:32:16.310Z,10.77
2018-12-26T04:34:36.806Z,9.73
2018-12-26T04:36:55.857Z,10.03
2018-12-26T04:39:14.852Z,11.97
2018-12-26T04:41:34.271Z,9.73
2018-12-26T04:43:54.009Z,10.30
2018-12-26T04:46:13.480Z,11.20
2018-12-26T04:48:32.812Z,10.60
2018-12-26T04:50:52.300Z,11.07
2018-12-26T04:53:11.756Z,10.60
2018-12-26T04:55:32.166Z,10.05
2018-12-26T04:57:51.697Z,9.07
2018-12-26T05:00:11.163Z,10.60
2018-12-26T05:02:30.701Z,10.63
2018-12-26T05:04:50.281Z,9.10
2018-12-26T05:07:11.051Z,12.60
2018-12-26T05:09:30.701Z,9.47
2018-12-26T05:11:50.178Z,10.13
2018-12-26T05:14:09.593Z,12.37
2018-12-26T05:16:29.064Z,9.03
2018-12-26T05:18:48.778Z,6.42
2018-12-26T05:21:07.174Z,10.67
2018-12-26T05:23:26.444Z,10.37
2018-12-26T05:25:46.800Z,9.60
2018-12-26T05:28:06.581Z,9.47
2018-12-26T05:30:25.695Z,9.30
2018-12-26T05:32:45.569Z,8.17
2018-12-26T05:35:04.616Z,12.73
2018-12-26T05:37:23.932Z,13.20
2018-12-26T05:39:44.015Z,12.15
2018-12-26T05:42:03.430Z,12.00
2018-12-26T05:44:21.392Z,8.27
2018-12-26T05:46:41.739Z,9.78
2018-12-26T05:49:01.365Z,9.13
2018-12-26T05:51:19.515Z,11.90
2018-12-26T05:54:55.730Z,14.17
2018-12-26T05:57:02.455Z,14.07
2018-12-26T06:00:16.730Z,9.30
2018-12-26T06:02:36.240Z,11.37
2018-12-26T06:06:22.868Z,11.60
2018-12-26T06:08:41.554Z,8.97
2018-12-26T06:11:01.908Z,8.63
2018-12-26T06:13:21.514Z,10.20
2018-12-26T06:15:28.733Z,11.40
2018-12-26T06:17:47.950Z,13.67
2018-12-26T06:20:07.960Z,9.60
2018-12-26T06:22:27.837Z,12.85
2018-12-26T06:24:46.950Z,10.20
2018-12-26T06:27:06.154Z,15.20
2018-12-26T06:29:26.115Z,12.73
2018-12-26T06:31:46.035Z,12.18
2018-12-26T06:34:05.614Z,11.70
2018-12-26T06:36:26.114Z,11.60
2018-12-26T06:38:45.630Z,11.10
2018-12-26T06:41:05.406Z,9.70
2018-12-26T06:43:25.068Z,10.60
2018-12-26T06:45:43.203Z,12.00
2018-12-26T06:48:02.898Z,9.63
2018-12-26T06:50:23.019Z,11.73
2018-12-26T06:52:42.240Z,8.77
2018-12-26T06:55:02.818Z,11.25
2018-12-26T06:57:22.815Z,11.70
2018-12-26T06:59:42.876Z,12.33
2018-12-26T07:02:02.420Z,10.87
2018-12-26T07:04:21.616Z,10.40
2018-12-26T07:06:41.601Z,12.17
2018-12-26T07:08:59.329Z,9.00
2018-12-26T07:11:18.676Z,11.57
2018-12-26T07:13:38.294Z,9.60
2018-12-26T07:15:58.361Z,11.53
2018-12-26T07:18:17.562Z,9.27
2018-12-26T07:20:36.765Z,10.77
2018-12-26T07:22:54.574Z,9.13
2018-12-26T07:25:14.286Z,11.97
2018-12-26T07:27:33.627Z,12.93
2018-12-26T07:31:00.116Z,10.00
2018-12-26T07:33:42.830Z,10.50
2018-12-26T07:36:26.439Z,13.53
2018-12-26T07:42:18.601Z,10.30
2018-12-26T07:48:46.390Z,150.93
2018-12-26T07:51:36.378Z,62.00
2018-12-26T07:54:20.842Z,21.53
2018-12-26T08:00:08.263Z,13.67
2018-12-26T08:05:52.370Z,14.27
2018-12-26T08:11:36.954Z,11.63
2018-12-26T08:14:39.733Z,12.30
2018-12-26T08:17:24.850Z,11.57
2018-12-26T08:20:15.407Z,12.43
2018-12-26T08:23:17.104Z,14.10
2018-12-26T08:29:02.469Z,12.90
2018-12-26T08:32:25.265Z,9.78
2018-12-26T08:35:23.611Z,11.10
2018-12-26T08:41:10.738Z,10.78
2018-12-26T08:46:57.195Z,13.50
2018-12-26T08:49:47.267Z,16.50
2018-12-26T08:52:32.564Z,15.50
2018-12-26T08:55:18.543Z,13.00
2018-12-26T08:58:18.368Z,13.65
2018-12-26T09:01:02.875Z,14.90
2018-12-26T09:04:13.722Z,12.23
2018-12-26T09:06:56.985Z,12.53
2018-12-26T09:12:56.410Z,14.03
2018-12-26T09:18:43.212Z,15.07
2018-12-26T09:24:28.448Z,14.60
2018-12-26T09:27:37.462Z,16.47
2018-12-26T09:30:21.540Z,14.83
2018-12-26T09:33:05.729Z,12.90
2018-12-26T09:35:55.943Z,11.53
2018-12-26T09:38:40.213Z,13.40
2018-12-26T11:01:48.109Z,15.13
2018-12-26T11:04:18.788Z,12.50
2018-12-26T11:06:49.482Z,17.40
2018-12-26T11:09:20.085Z,15.37
2018-12-26T11:11:50.717Z,16.70
2018-12-26T11:15:12.933Z,17.97
2018-12-26T11:17:44.623Z,16.97
2018-12-26T11:22:07.694Z,13.77
2018-12-26T11:24:38.290Z,13.33
2018-12-26T11:27:08.920Z,13.97
2018-12-26T11:29:41.083Z,11.30
2018-12-26T11:32:11.854Z,15.37
2018-12-26T11:34:42.608Z,11.47
2018-12-26T11:37:14.042Z,11.57
2018-12-26T11:39:44.806Z,16.80
2018-12-26T11:42:16.378Z,12.90
2018-12-26T11:44:47.125Z,13.00
2018-12-26T11:47:17.748Z,16.27
2018-12-26T11:49:48.371Z,13.20
2018-12-26T11:52:19.479Z,12.93
2018-12-26T11:54:50.573Z,13.80
2018-12-26T11:57:21.268Z,13.60
2018-12-26T11:59:51.961Z,12.70
2018-12-26T12:02:22.595Z,12.40
2018-12-26T12:04:54.173Z,13.43
2018-12-26T12:07:25.214Z,12.97
2018-12-26T12:09:55.887Z,11.27
2018-12-26T12:12:26.882Z,13.60
2018-12-26T12:14:57.780Z,16.60
2018-12-26T12:17:28.549Z,11.40
2018-12-26T12:19:59.321Z,10.93
2018-12-26T12:22:30.421Z,15.57
2018-12-26T12:25:01.066Z,13.27
2018-12-26T12:27:31.767Z,10.97
2018-12-26T12:30:02.477Z,11.70
2018-12-26T12:32:34.628Z,17.40
2018-12-26T12:35:06.393Z,22.20
2018-12-26T12:37:38.130Z,12.03
2018-12-26T12:40:11.386Z,13.80
2018-12-26T12:42:42.096Z,10.90
2018-12-26T12:45:12.987Z,11.40
2018-12-26T12:47:43.766Z,13.30
2018-12-26T12:50:14.475Z,12.30
2018-12-26T12:52:45.291Z,14.70
2018-12-26T12:55:16.635Z,16.87
2018-12-26T12:57:47.627Z,16.77
2018-12-26T13:00:18.499Z,12.77
2018-12-26T13:02:49.325Z,16.07
2018-12-26T13:05:20.046Z,12.63
2018-12-26T13:07:50.730Z,14.73
2018-12-26T13:10:22.151Z,10.87
2018-12-26T13:12:53.031Z,14.73
2018-12-26T13:15:23.848Z,14.43
2018-12-26T13:17:55.017Z,11.53
2018-12-26T13:20:25.676Z,13.47
2018-12-26T13:22:57.628Z,10.23
2018-12-26T13:25:29.241Z,11.30
2018-12-26T13:28:00.389Z,11.73
2018-12-26T13:30:31.105Z,14.70
2018-12-26T13:33:02.048Z,13.40
2018-12-26T13:35:32.756Z,15.00
2018-12-26T13:38:03.736Z,13.20
2018-12-26T13:40:35.571Z,13.27
2018-12-26T13:43:06.293Z,13.93
2018-12-26T13:45:37.393Z,15.97
2018-12-26T13:48:08.030Z,16.90
2018-12-26T13:50:38.658Z,16.67
2018-12-26T13:53:09.365Z,16.20
2018-12-26T13:55:41.117Z,14.27
2018-12-26T13:58:11.922Z,14.53
2018-12-26T14:00:44.374Z,18.53
2018-12-26T14:03:15.103Z,18.80
2018-12-26T14:05:46.857Z,18.27
2018-12-26T14:08:17.980Z,19.17
2018-12-26T14:10:48.581Z,19.90
2018-12-26T14:13:19.634Z,20.83
2018-12-26T14:15:51.473Z,19.23
2018-12-26T14:18:23.309Z,15.67
2018-12-26T14:20:54.138Z,13.97
2018-12-26T14:23:25.962Z,16.60
2018-12-26T14:27:29.332Z,12.20
2018-12-26T14:30:20.607Z,19.80
2018-12-26T14:32:53.315Z,14.33
2018-12-26T14:35:25.001Z,13.53
2018-12-26T14:37:56.695Z,21.47
2018-12-26T14:40:29.446Z,17.70
2018-12-26T14:43:02.469Z,17.60
2018-12-26T14:45:34.193Z,16.60
2018-12-26T14:48:06.081Z,13.53
2018-12-26T14:50:38.875Z,17.50
2018-12-26T14:53:10.600Z,16.03
2018-12-26T14:55:43.357Z,18.23
2018-12-26T14:58:15.115Z,16.00
2018-12-26T15:00:46.927Z,17.85
2018-12-26T15:03:18.614Z,18.47
2018-12-26T15:05:50.294Z,30.53
2018-12-26T15:08:22.559Z,13.77
2018-12-26T15:11:00.599Z,14.73
2018-12-26T15:13:31.772Z,17.40
2018-12-26T15:16:09.583Z,19.07
2018-12-26T15:18:48.046Z,17.43
2018-12-26T15:21:24.550Z,16.45
2018-12-26T15:23:56.216Z,16.57
2018-12-26T15:26:28.661Z,18.02
2018-12-26T15:29:00.518Z,15.60
2018-12-26T15:31:32.494Z,20.90
2018-12-26T15:34:08.764Z,16.50
2018-12-26T15:36:41.605Z,20.07
2018-12-26T15:39:13.671Z,19.00
2018-12-26T15:41:46.281Z,17.93
2018-12-26T15:44:17.972Z,20.07
2018-12-26T15:46:49.943Z,19.27
2018-12-26T15:49:21.645Z,21.23
2018-12-26T15:51:54.548Z,20.40
2018-12-26T15:54:26.245Z,19.40
2018-12-26T15:56:59.231Z,17.27
2018-12-26T15:59:30.971Z,19.93
2018-12-26T16:02:02.799Z,21.80
2018-12-26T16:04:34.505Z,17.60
2018-12-26T16:07:06.324Z,20.60
2018-12-26T16:09:38.112Z,18.63
2018-12-26T16:12:11.055Z,18.60
2018-12-26T16:14:42.821Z,19.17
2018-12-26T16:17:15.889Z,20.90
2018-12-26T16:19:47.680Z,18.73
2018-12-26T16:22:36.892Z,17.30
2018-12-26T16:25:09.142Z,18.63
2018-12-26T16:27:41.558Z,21.13
2018-12-26T16:30:13.208Z,16.63
2018-12-26T16:32:45.015Z,21.13
2018-12-26T16:35:16.707Z,16.60
2018-12-26T16:37:48.419Z,23.30
2018-12-26T16:40:20.142Z,18.50
2018-12-26T16:42:52.600Z,22.10
2018-12-26T16:45:24.298Z,24.37
2018-12-26T16:47:56.083Z,16.97
2018-12-26T16:50:28.020Z,18.80
2018-12-26T16:53:01.016Z,18.97
2018-12-26T16:55:33.132Z,19.93
2018-12-26T16:58:05.552Z,20.20
2018-12-26T17:00:37.382Z,18.40
2018-12-26T17:03:09.228Z,19.23
2018-12-26T17:05:41.072Z,18.63
2018-12-26T17:08:12.788Z,21.57
2018-12-26T17:10:44.463Z,21.20
2018-12-26T17:13:16.175Z,22.30
2018-12-26T17:15:48.455Z,21.10
2018-12-26T17:18:20.158Z,22.62
2018-12-26T17:20:51.982Z,23.45
2018-12-26T17:23:24.031Z,34.40
2018-12-26T17:25:55.793Z,29.00
2018-12-26T17:28:27.452Z,28.10
2018-12-26T17:31:04.062Z,23.33
2018-12-26T17:33:33.257Z,23.30
2018-12-26T17:36:05.063Z,24.50
2018-12-26T17:38:36.877Z,23.17
2018-12-26T17:41:08.702Z,22.53
2018-12-26T17:43:40.376Z,21.33
2018-12-26T17:46:12.877Z,24.07
2018-12-26T17:48:44.706Z,25.17
2018-12-26T17:51:20.891Z,28.60
2018-12-26T17:54:37.513Z,23.23
2018-12-26T17:57:22.717Z,25.00
2018-12-26T18:00:54.398Z,21.60
2018-12-26T18:03:26.928Z,26.20
2018-12-26T18:05:58.862Z,22.27
2018-12-26T18:08:30.665Z,26.97
2018-12-26T18:11:02.483Z,23.80
2018-12-26T18:13:34.265Z,24.07
2018-12-26T18:16:06.014Z,23.37
2018-12-26T18:18:37.697Z,26.50
2018-12-26T18:21:10.074Z,26.87
2018-12-26T18:23:41.758Z,23.07
2018-12-26T18:26:13.733Z,29.50
2018-12-26T18:28:45.436Z,26.77
2018-12-26T18:31:21.942Z,23.20
2018-12-26T18:33:50.451Z,22.80
2018-12-26T18:36:22.949Z,23.13
2018-12-26T18:38:54.764Z,21.80
2018-12-26T18:41:26.494Z,29.30
2018-12-26T18:43:58.202Z,26.70
2018-12-26T18:46:29.877Z,25.10
2018-12-26T18:49:02.020Z,28.60
2018-12-26T18:51:33.776Z,30.43
2018-12-26T18:54:06.705Z,30.70
2018-12-26T18:56:38.533Z,27.97
2018-12-26T18:59:10.410Z,29.00
2018-12-26T19:01:42.134Z,28.57
2018-12-26T19:04:13.884Z,33.43
2018-12-26T19:06:47.181Z,33.13
2018-12-26T19:09:19.707Z,30.80
2018-12-26T19:11:51.425Z,38.80
2018-12-26T19:14:23.264Z,33.50
2018-12-26T19:16:55.044Z,30.40
2018-12-26T19:19:26.788Z,36.30
2018-12-26T19:21:58.472Z,34.23
2018-12-26T19:24:30.596Z,30.20
2018-12-26T19:27:02.317Z,32.30
2018-12-26T19:29:34.057Z,28.98
2018-12-26T19:32:06.816Z,29.03
2018-12-26T19:34:39.102Z,32.87
2018-12-26T19:37:11.021Z,29.10
2018-12-26T19:39:42.918Z,32.60
2018-12-26T19:42:14.964Z,34.27
2018-12-26T19:44:47.307Z,28.30
2018-12-26T19:47:19.092Z,27.37
2018-12-26T19:49:50.994Z,32.27
2018-12-26T19:52:22.751Z,33.70
2018-12-26T19:54:54.624Z,33.77
2018-12-26T19:57:26.998Z,28.07
2018-12-26T19:59:58.735Z,27.03
2018-12-26T20:02:30.496Z,28.07
2018-12-26T20:05:02.242Z,25.90
2018-12-26T20:07:34.046Z,31.37
2018-12-26T20:10:06.882Z,31.33
2018-12-26T20:12:40.386Z,35.10
2018-12-26T20:15:12.796Z,35.47
2018-12-26T20:17:44.628Z,39.13
2018-12-26T20:20:17.175Z,33.90
2018-12-26T20:22:49.142Z,32.93
2018-12-26T20:25:20.901Z,31.17
2018-12-26T20:27:53.153Z,33.20
2018-12-26T20:30:24.995Z,37.17
2018-12-26T20:32:56.694Z,31.17
2018-12-26T20:35:28.403Z,33.00
2018-12-26T20:38:00.441Z,31.10
2018-12-26T20:40:32.276Z,29.57
2018-12-26T20:43:04.724Z,34.27
2018-12-26T20:45:36.481Z,29.60
2018-12-26T20:48:08.286Z,29.50
2018-12-26T20:50:40.145Z,35.30
2018-12-26T20:53:12.170Z,33.33
2018-12-26T20:55:44.694Z,30.27
2018-12-26T20:58:17.138Z,32.88
2018-12-26T21:00:49.281Z,36.88
2018-12-26T21:03:21.053Z,38.00
2018-12-26T21:05:53.258Z,31.27
2018-12-26T21:08:25.178Z,35.20
2018-12-26T21:10:56.887Z,28.55
2018-12-26T21:13:28.616Z,26.43
2018-12-26T21:16:01.056Z,31.43
2018-12-26T21:18:32.802Z,33.80
2018-12-26T21:21:05.840Z,30.93
2018-12-26T21:23:37.538Z,35.67
2018-12-26T21:26:09.394Z,29.77
2018-12-26T21:28:41.434Z,32.70
2018-12-26T21:31:13.867Z,40.40
2018-12-26T21:33:47.610Z,34.60
2018-12-26T21:36:19.321Z,41.53
2018-12-26T21:38:51.125Z,40.47
2018-12-26T21:41:22.980Z,31.97
2018-12-26T21:43:56.419Z,38.17
2018-12-26T21:46:29.001Z,28.10
2018-12-26T21:49:00.775Z,34.00
2018-12-26T21:51:32.762Z,36.33
2018-12-26T21:54:04.544Z,28.03
2018-12-26T21:56:36.894Z,29.83
2018-12-26T21:59:09.247Z,28.17
2018-12-26T22:01:41.015Z,30.12
2018-12-26T22:04:14.705Z,37.53
2018-12-26T22:06:46.456Z,35.63
2018-12-26T22:09:18.245Z,35.07
2018-12-26T22:11:50.124Z,38.10
2018-12-26T22:14:21.948Z,42.00
2018-12-26T22:16:53.767Z,46.80
2018-12-26T22:19:26.006Z,33.00
2018-12-26T22:21:57.794Z,39.57
2018-12-26T22:24:29.572Z,40.90
2018-12-26T22:27:01.483Z,33.67
2018-12-26T22:29:33.205Z,40.10
2018-12-26T22:32:05.347Z,42.10
2018-12-26T22:34:37.658Z,43.90
2018-12-26T22:37:09.400Z,37.97
2018-12-26T22:39:41.116Z,35.50
2018-12-26T22:42:13.071Z,33.30
2018-12-26T22:44:44.818Z,34.27
2018-12-26T22:47:17.157Z,31.82
2018-12-26T22:49:49.616Z,36.40
2018-12-26T22:52:21.258Z,33.80
2018-12-26T22:54:54.831Z,32.90
2018-12-26T22:57:26.839Z,33.13
2018-12-26T22:59:58.510Z,35.33
2018-12-26T23:02:30.321Z,37.73
2018-12-26T23:05:02.439Z,37.77
2018-12-26T23:07:35.805Z,34.50
2018-12-26T23:10:09.065Z,41.23
2018-12-26T23:12:45.688Z,34.77
2018-12-26T23:15:19.730Z,38.13
2018-12-26T23:17:51.497Z,35.53
2018-12-26T23:20:23.463Z,38.20
2018-12-26T23:22:55.952Z,34.97
2018-12-26T23:25:27.767Z,41.70
2018-12-26T23:27:59.433Z,35.63
2018-12-26T23:30:31.184Z,37.75
2018-12-26T23:33:02.867Z,36.27
2018-12-26T23:35:34.511Z,38.17
2018-12-26T23:38:06.957Z,39.10
2018-12-26T23:40:38.787Z,36.80
2018-12-26T23:43:10.428Z,37.17
2018-12-26T23:45:42.392Z,38.27
2018-12-26T23:48:14.167Z,36.80
2018-12-26T23:50:46.865Z,40.67
2018-12-26T23:53:19.324Z,39.40
2018-12-26T23:55:51.317Z,38.50
2018-12-26T23:58:23.009Z,41.27
